GMFF/FEZ METAR and TAF weather

Enter ICAO airport designator
Station Type Date Time Source
GMFF METAR 2018/09/22 00:00 UTC NOAA

GMFF 220000Z 08005KT CAVOK 23/11 Q1020 NOSIG


Station Type Date Time Source
GMFF Decoded METAR 2018/09/22 00:00 UTC NOAA

Fes-Sais, Morocco (GMFF) 33-56N 004-59W 579M
Sep 21, 2018 - 08:00 PM EDT / 2018.09.22 0000 UTC
Wind: from the E (080 degrees) at 6 MPH (5 KT):0
Visibility: greater than 7 mile(s):0
Temperature: 73 F (23 C)
Dew Point: 51 F (11 C)
Relative Humidity: 46%
Pressure (altimeter): 30.12 in. Hg (1020 hPa)
ob: GMFF 220000Z 08005KT CAVOK 23/11 Q1020 NOSIG
cycle: 0

Station Type Date Time Source
GMFF TAF 2018/09/21 18:18 UTC NOAA

TAF TAF GMFF 211700Z 2118/2224 02010KT 9999 FEW033
BECMG 2120/2124 18006KT CAVOK
BECMG 2210/2212 04012KT FEW033
TEMPO 2214/2218 04016G27KT


Example: see airport list